createdAt,value
2023-02-06T00:00:35.302Z,-6.07
2023-02-06T00:03:02.113Z,-6.14
2023-02-06T00:05:29.002Z,-6.13
2023-02-06T00:07:55.890Z,-6.16
2023-02-06T00:10:22.998Z,-6.25
2023-02-06T00:12:50.217Z,-6.28
2023-02-06T00:15:17.159Z,-6.15
2023-02-06T00:17:44.034Z,-6.04
2023-02-06T00:20:11.363Z,-6.05
2023-02-06T00:22:38.385Z,-6.07
2023-02-06T00:25:05.559Z,-6.03
2023-02-06T00:27:32.762Z,-6.01
2023-02-06T00:29:59.705Z,-5.94
2023-02-06T00:32:26.663Z,-6.02
2023-02-06T00:34:53.500Z,-5.93
2023-02-06T00:37:20.293Z,-5.86
2023-02-06T00:39:47.066Z,-5.94
2023-02-06T00:42:14.409Z,-5.81
2023-02-06T00:44:41.373Z,-5.78
2023-02-06T00:47:08.868Z,-5.74
2023-02-06T00:49:35.713Z,-5.74
2023-02-06T00:52:02.509Z,-6.00
2023-02-06T00:54:32.038Z,-6.09
2023-02-06T00:56:58.836Z,-6.10
2023-02-06T00:59:25.656Z,-6.02
2023-02-06T01:01:52.474Z,-5.93
2023-02-06T01:04:19.364Z,-5.95
2023-02-06T01:06:46.095Z,-5.82
2023-02-06T01:09:12.923Z,-5.84
2023-02-06T01:11:39.788Z,-5.86
2023-02-06T01:14:06.751Z,-5.78
2023-02-06T01:16:33.704Z,-5.76
2023-02-06T01:19:04.798Z,-5.68
2023-02-06T01:21:32.657Z,-5.62
2023-02-06T01:23:59.622Z,-5.60
2023-02-06T01:26:27.232Z,-5.58
2023-02-06T01:28:54.738Z,-5.56
2023-02-06T01:31:21.534Z,-5.56
2023-02-06T01:33:58.457Z,-5.82
2023-02-06T01:36:25.299Z,-5.78
2023-02-06T01:38:52.534Z,-5.86
2023-02-06T01:41:20.319Z,-5.75
2023-02-06T01:43:48.431Z,-5.78
2023-02-06T01:46:15.389Z,-5.86
2023-02-06T01:48:51.547Z,-5.77
2023-02-06T01:51:20.333Z,-5.81
2023-02-06T01:53:50.515Z,-5.70
2023-02-06T01:56:19.704Z,-5.69
2023-02-06T01:58:49.046Z,-5.70
2023-02-06T02:01:20.468Z,-5.64
2023-02-06T02:03:48.532Z,-5.91
2023-02-06T02:06:16.875Z,-5.83
2023-02-06T02:08:45.276Z,-5.80
2023-02-06T02:11:18.612Z,-5.71
2023-02-06T02:13:45.604Z,-5.66
2023-02-06T02:16:25.519Z,-5.63
2023-02-06T02:19:15.713Z,-5.59
2023-02-06T02:22:00.936Z,-5.92
2023-02-06T02:24:46.620Z,-5.85
2023-02-06T02:27:22.669Z,-5.89
2023-02-06T02:29:58.710Z,-6.02
2023-02-06T02:32:34.698Z,-5.94
2023-02-06T02:35:13.025Z,-5.98
2023-02-06T02:37:40.105Z,-6.04
2023-02-06T02:40:27.368Z,-6.16
2023-02-06T02:43:09.160Z,-6.06
2023-02-06T02:45:52.382Z,-5.91
2023-02-06T02:48:23.357Z,-6.00
2023-02-06T02:50:50.762Z,-5.90
2023-02-06T02:53:17.680Z,-5.85
2023-02-06T02:55:45.406Z,-5.95
2023-02-06T02:58:15.460Z,-6.09
2023-02-06T03:00:49.276Z,-6.13
2023-02-06T03:03:17.918Z,-6.08
2023-02-06T03:05:52.812Z,-6.11
2023-02-06T03:08:19.633Z,-6.09
2023-02-06T03:10:47.263Z,-6.05
2023-02-06T03:13:16.430Z,-6.08
2023-02-06T03:15:50.867Z,-6.17
2023-02-06T03:18:20.013Z,-6.38
2023-02-06T03:20:48.027Z,-6.52
2023-02-06T03:23:20.486Z,-6.43
2023-02-06T03:25:50.157Z,-6.49
2023-02-06T03:28:20.451Z,-6.45
2023-02-06T03:30:49.190Z,-6.43
2023-02-06T03:33:18.496Z,-6.52
2023-02-06T03:35:45.986Z,-6.53
2023-02-06T03:38:13.201Z,-6.58
2023-02-06T03:40:41.157Z,-6.48
2023-02-06T03:43:08.549Z,-6.48
2023-02-06T03:45:40.207Z,-6.42
2023-02-06T03:48:19.441Z,-6.39
2023-02-06T03:50:48.064Z,-6.37
2023-02-06T03:53:15.742Z,-6.49
2023-02-06T03:55:43.557Z,-6.49
2023-02-06T03:58:12.490Z,-6.39
2023-02-06T04:00:41.004Z,-6.40
2023-02-06T04:03:08.721Z,-6.37
2023-02-06T04:05:35.842Z,-6.48
2023-02-06T04:08:02.944Z,-6.52
2023-02-06T04:10:29.782Z,-6.53
2023-02-06T04:12:57.062Z,-6.48
2023-02-06T04:15:24.130Z,-6.83
2023-02-06T04:18:00.110Z,-6.70
2023-02-06T04:20:28.284Z,-7.11
2023-02-06T04:22:55.115Z,-7.08
2023-02-06T04:25:22.050Z,-7.06
2023-02-06T04:27:49.148Z,-7.28
2023-02-06T04:30:17.471Z,-7.18
2023-02-06T04:32:44.280Z,-7.16
2023-02-06T04:35:11.101Z,-7.09
2023-02-06T04:37:37.979Z,-7.00
2023-02-06T04:40:04.998Z,-7.05
2023-02-06T04:42:31.831Z,-7.19
2023-02-06T04:44:58.621Z,-7.27
2023-02-06T04:47:25.884Z,-7.26
2023-02-06T04:49:53.084Z,-7.25
2023-02-06T04:52:19.898Z,-7.25
2023-02-06T04:54:47.238Z,-7.25
2023-02-06T04:57:14.260Z,-7.21
2023-02-06T04:59:41.048Z,-7.18
2023-02-06T05:02:07.876Z,-7.23
2023-02-06T05:04:34.659Z,-7.23
2023-02-06T05:07:03.076Z,-7.19
2023-02-06T05:09:31.410Z,-7.33
2023-02-06T05:11:58.167Z,-7.48
2023-02-06T05:14:25.115Z,-7.49
2023-02-06T05:16:52.048Z,-7.53
2023-02-06T05:19:18.928Z,-7.65
2023-02-06T05:21:45.674Z,-7.66
2023-02-06T05:24:16.029Z,-7.64
2023-02-06T05:26:42.845Z,-7.55
2023-02-06T05:29:09.798Z,-7.62
2023-02-06T05:31:36.765Z,-7.59
2023-02-06T05:34:03.622Z,-7.59
2023-02-06T05:36:30.477Z,-7.62
2023-02-06T05:38:57.324Z,-7.76
2023-02-06T05:41:24.405Z,-7.61
2023-02-06T05:43:51.271Z,-7.55
2023-02-06T05:46:19.590Z,-7.52
2023-02-06T05:48:46.480Z,-7.44
2023-02-06T05:51:13.568Z,-7.33
2023-02-06T05:53:40.294Z,-7.19
2023-02-06T05:56:07.511Z,-7.18
2023-02-06T05:58:34.686Z,-7.16
2023-02-06T06:01:01.519Z,-7.12
2023-02-06T06:03:28.340Z,-7.13
2023-02-06T06:05:55.165Z,-7.07
2023-02-06T06:08:21.970Z,-7.17
2023-02-06T06:10:52.465Z,-7.12
2023-02-06T06:13:19.417Z,-7.24
2023-02-06T06:15:46.363Z,-7.18
2023-02-06T06:18:13.353Z,-7.14
2023-02-06T06:20:41.517Z,-7.50
2023-02-06T06:23:08.305Z,-7.39
2023-02-06T06:25:35.631Z,-7.45
2023-02-06T06:28:03.163Z,-7.34
2023-02-06T06:30:29.954Z,-7.36
2023-02-06T06:32:57.127Z,-7.40
2023-02-06T06:35:24.155Z,-7.42
2023-02-06T06:37:50.896Z,-7.31
2023-02-06T06:40:17.858Z,-7.18
2023-02-06T06:42:44.678Z,-7.16
2023-02-06T06:45:11.569Z,-7.04
2023-02-06T06:47:38.290Z,-7.14
2023-02-06T06:50:05.676Z,-6.99
2023-02-06T06:52:32.722Z,-7.02
2023-02-06T06:54:59.478Z,-6.98
2023-02-06T06:57:26.325Z,-6.94
2023-02-06T06:59:53.124Z,-6.96
2023-02-06T07:02:20.028Z,-6.87
2023-02-06T07:04:46.898Z,-6.87
2023-02-06T07:07:13.690Z,-6.80
2023-02-06T07:09:40.555Z,-6.84
2023-02-06T07:12:07.375Z,-6.80
2023-02-06T07:14:34.154Z,-6.77
2023-02-06T07:17:01.922Z,-6.72
2023-02-06T07:19:36.243Z,-6.74
2023-02-06T07:22:03.086Z,-6.65
2023-02-06T07:24:29.936Z,-6.59
2023-02-06T07:26:57.928Z,-6.63
2023-02-06T07:29:25.195Z,-6.49
2023-02-06T07:31:52.212Z,-6.48
2023-02-06T07:34:19.070Z,-6.47
2023-02-06T07:36:45.908Z,-6.47
2023-02-06T07:39:12.861Z,-6.36
2023-02-06T07:41:39.743Z,-6.56
2023-02-06T07:44:06.658Z,-6.72
2023-02-06T07:46:34.669Z,-6.59
2023-02-06T07:49:01.443Z,-6.56
2023-02-06T07:51:28.301Z,-6.54
2023-02-06T07:53:55.191Z,-6.49
2023-02-06T07:56:25.474Z,-6.51
2023-02-06T07:58:53.086Z,-6.43
2023-02-06T08:01:20.989Z,-6.33
2023-02-06T08:03:51.522Z,-6.36
2023-02-06T08:06:19.003Z,-6.37
2023-02-06T08:08:45.852Z,-6.22
2023-02-06T08:11:13.710Z,-6.16
2023-02-06T08:13:40.926Z,-6.04
2023-02-06T08:16:08.943Z,-6.15
2023-02-06T08:18:36.755Z,-6.05
2023-02-06T08:21:04.323Z,-5.94
2023-02-06T08:23:31.179Z,-5.85
2023-02-06T08:26:05.227Z,-5.69
2023-02-06T08:28:32.399Z,-5.59
2023-02-06T08:30:59.614Z,-5.61
2023-02-06T08:33:26.636Z,-5.53
2023-02-06T08:35:54.226Z,-5.50
2023-02-06T08:38:21.072Z,-5.38
2023-02-06T08:40:47.910Z,-5.39
2023-02-06T08:43:14.768Z,-5.26
2023-02-06T08:45:41.723Z,-5.32
2023-02-06T08:48:08.572Z,-5.27
2023-02-06T08:50:35.528Z,-5.18
2023-02-06T08:53:03.299Z,-5.14
2023-02-06T08:55:30.304Z,-5.14
2023-02-06T08:57:57.183Z,-5.18
2023-02-06T09:00:24.070Z,-5.03
2023-02-06T09:02:52.838Z,-4.94
2023-02-06T09:05:20.430Z,-4.89
2023-02-06T09:07:47.406Z,-4.82
2023-02-06T09:10:26.670Z,-4.76
2023-02-06T09:12:55.120Z,-4.59
2023-02-06T09:15:22.103Z,-4.66
2023-02-06T09:17:50.346Z,-4.57
2023-02-06T09:20:17.391Z,-4.65
2023-02-06T09:22:44.867Z,-4.55
2023-02-06T09:25:11.747Z,-4.47
2023-02-06T09:27:38.680Z,-4.43
2023-02-06T09:30:05.808Z,-4.47
2023-02-06T09:32:32.592Z,-4.37
2023-02-06T09:34:59.439Z,-4.35
2023-02-06T09:37:26.358Z,-4.32
2023-02-06T09:39:53.140Z,-4.30
2023-02-06T09:42:24.049Z,-4.24
2023-02-06T09:45:09.424Z,-4.20
2023-02-06T09:47:39.505Z,-4.13
2023-02-06T09:50:14.409Z,-4.10
2023-02-06T09:53:00.151Z,-3.92
2023-02-06T09:55:36.356Z,-3.96
2023-02-06T09:58:16.347Z,-4.00
2023-02-06T10:00:52.506Z,-4.04
2023-02-06T10:03:25.313Z,-4.02
2023-02-06T10:05:52.126Z,-3.87
2023-02-06T10:08:37.827Z,-3.82
2023-02-06T10:11:14.598Z,-3.86
2023-02-06T10:13:54.465Z,-3.81
2023-02-06T10:16:33.559Z,-3.75
2023-02-06T10:19:05.591Z,-3.71
2023-02-06T10:22:10.846Z,-3.57
2023-02-06T10:24:42.163Z,-3.55
2023-02-06T10:27:13.767Z,-3.77
2023-02-06T10:29:45.636Z,-3.70
2023-02-06T10:32:38.757Z,-3.76
2023-02-06T10:35:44.097Z,-3.63
2023-02-06T10:38:26.923Z,-3.60
2023-02-06T10:41:08.542Z,-3.56
2023-02-06T10:43:46.279Z,-3.45
2023-02-06T10:46:20.169Z,-3.42
2023-02-06T10:48:53.547Z,-3.51
2023-02-06T10:51:38.382Z,-3.46
2023-02-06T10:54:31.659Z,-3.50
2023-02-06T10:56:59.789Z,-3.39
2023-02-06T10:59:28.370Z,-3.33
2023-02-06T11:02:14.815Z,-3.34
2023-02-06T11:04:44.676Z,-3.36
2023-02-06T11:07:16.862Z,-3.42
2023-02-06T11:09:44.171Z,-3.30
2023-02-06T11:12:30.564Z,-3.24
2023-02-06T11:15:00.628Z,-3.13
2023-02-06T11:17:28.544Z,-3.08
2023-02-06T11:20:00.265Z,-3.19
2023-02-06T11:22:29.447Z,-3.28
2023-02-06T11:24:59.434Z,-3.22
2023-02-06T11:27:26.710Z,-3.24
2023-02-06T11:29:53.560Z,-3.24
2023-02-06T11:32:26.677Z,-3.14
2023-02-06T11:35:01.690Z,-3.20
2023-02-06T11:37:36.181Z,-3.17
2023-02-06T11:40:32.124Z,-3.28
2023-02-06T11:43:17.184Z,-3.17
2023-02-06T11:45:45.301Z,-3.12
2023-02-06T11:48:32.791Z,-3.05
2023-02-06T11:50:59.767Z,-2.98
2023-02-06T11:53:26.682Z,-3.05
2023-02-06T11:56:02.564Z,-2.92
2023-02-06T11:58:29.900Z,-2.91
2023-02-06T12:00:56.852Z,-2.89
2023-02-06T12:03:31.040Z,-2.80
2023-02-06T12:06:18.121Z,-2.84
2023-02-06T12:08:50.024Z,-2.80
2023-02-06T12:11:21.098Z,-2.80
2023-02-06T12:13:54.950Z,-2.82
2023-02-06T12:16:22.885Z,-2.76
2023-02-06T12:18:53.030Z,-2.82
2023-02-06T12:21:38.744Z,-2.84
2023-02-06T12:24:24.239Z,-2.87
2023-02-06T12:26:51.950Z,-2.88
2023-02-06T12:29:22.936Z,-2.84
2023-02-06T12:32:07.615Z,-2.86
2023-02-06T12:34:51.901Z,-2.78
2023-02-06T12:37:22.079Z,-2.74
2023-02-06T12:39:49.324Z,-2.73
2023-02-06T12:42:19.028Z,-2.72
2023-02-06T12:44:57.539Z,-2.83
2023-02-06T12:47:37.411Z,-2.83
2023-02-06T12:50:19.573Z,-2.90
2023-02-06T12:52:50.185Z,-2.92
2023-02-06T12:55:26.251Z,-3.00
2023-02-06T12:57:53.685Z,-2.99
2023-02-06T13:00:29.563Z,-3.07
2023-02-06T13:03:03.062Z,-3.08
2023-02-06T13:05:33.065Z,-3.14
2023-02-06T13:08:05.431Z,-3.23
2023-02-06T13:10:32.303Z,-3.28
2023-02-06T13:12:59.830Z,-3.39
2023-02-06T13:15:28.289Z,-3.64
2023-02-06T13:17:55.894Z,-3.65
2023-02-06T13:20:28.630Z,-3.83
2023-02-06T13:23:16.142Z,-3.88
2023-02-06T13:25:49.176Z,-3.98
2023-02-06T13:28:22.424Z,-4.08
2023-02-06T13:30:51.306Z,-4.03
2023-02-06T13:33:21.057Z,-4.23
2023-02-06T13:35:59.184Z,-4.22
2023-02-06T13:38:28.603Z,-4.30
2023-02-06T13:41:16.538Z,-4.28
2023-02-06T13:43:49.717Z,-4.22
2023-02-06T13:46:20.092Z,-4.27
2023-02-06T13:48:53.252Z,-4.17
2023-02-06T13:51:35.058Z,-4.35
2023-02-06T13:54:20.746Z,-4.28
2023-02-06T13:57:06.212Z,-4.40
2023-02-06T13:59:36.949Z,-4.40
2023-02-06T14:02:12.106Z,-4.33
2023-02-06T14:04:39.928Z,-4.32
2023-02-06T14:07:15.833Z,-4.33
2023-02-06T14:09:43.994Z,-4.24
2023-02-06T14:12:29.750Z,-4.35
2023-02-06T14:15:13.923Z,-4.59
2023-02-06T14:18:07.484Z,-4.57
2023-02-06T14:20:53.314Z,-4.58
2023-02-06T14:23:29.231Z,-4.56
2023-02-06T14:26:14.278Z,-4.48
2023-02-06T14:28:44.003Z,-4.83
2023-02-06T14:31:29.840Z,-4.67
2023-02-06T14:34:06.294Z,-4.74
2023-02-06T14:36:39.181Z,-4.71
2023-02-06T14:39:08.861Z,-4.63
2023-02-06T14:41:39.641Z,-4.65
2023-02-06T14:44:20.653Z,-4.57
2023-02-06T14:46:48.414Z,-4.78
2023-02-06T14:49:24.188Z,-4.78
2023-02-06T14:51:51.921Z,-4.83
2023-02-06T14:54:29.691Z,-4.73
2023-02-06T14:57:00.552Z,-4.71
2023-02-06T14:59:27.795Z,-4.84
2023-02-06T15:01:55.716Z,-4.95
2023-02-06T15:04:27.596Z,-4.91
2023-02-06T15:06:56.281Z,-4.92
2023-02-06T15:09:28.622Z,-4.96
2023-02-06T15:11:57.387Z,-4.82
2023-02-06T15:14:31.745Z,-5.00
2023-02-06T15:17:00.354Z,-5.12
2023-02-06T15:19:28.286Z,-5.04
2023-02-06T15:22:00.635Z,-4.99
2023-02-06T15:24:30.307Z,-5.00
2023-02-06T15:27:02.486Z,-4.99
2023-02-06T15:29:29.471Z,-5.16
2023-02-06T15:32:05.236Z,-5.06
2023-02-06T15:34:32.213Z,-5.02
2023-02-06T15:36:59.045Z,-5.03
2023-02-06T15:39:26.158Z,-4.96
2023-02-06T15:41:53.209Z,-4.89
2023-02-06T15:44:24.815Z,-4.83
2023-02-06T15:46:51.977Z,-4.77
2023-02-06T15:49:19.934Z,-4.70
2023-02-06T15:51:51.902Z,-4.65
2023-02-06T15:54:20.065Z,-4.58
2023-02-06T15:56:55.051Z,-4.57
2023-02-06T15:59:24.484Z,-4.49
2023-02-06T16:01:52.474Z,-4.43
2023-02-06T16:04:31.039Z,-4.35
2023-02-06T16:07:13.947Z,-4.37
2023-02-06T16:09:42.780Z,-4.49
2023-02-06T16:12:10.364Z,-4.40
2023-02-06T16:14:39.380Z,-4.40
2023-02-06T16:17:15.066Z,-4.54
2023-02-06T16:19:47.265Z,-4.55
2023-02-06T16:22:16.162Z,-4.67
2023-02-06T16:24:43.085Z,-4.76
2023-02-06T16:27:20.774Z,-4.76
2023-02-06T16:29:50.849Z,-5.06
2023-02-06T16:32:21.201Z,-5.00
2023-02-06T16:34:48.423Z,-5.00
2023-02-06T16:37:19.708Z,-5.00
2023-02-06T16:39:47.050Z,-5.13
2023-02-06T16:42:15.988Z,-5.38
2023-02-06T16:44:45.589Z,-5.50
2023-02-06T16:47:14.794Z,-5.77
2023-02-06T16:49:41.820Z,-6.11
2023-02-06T16:52:08.797Z,-6.18
2023-02-06T16:54:35.647Z,-6.14
2023-02-06T16:57:09.662Z,-6.42
2023-02-06T16:59:36.530Z,-6.77
2023-02-06T17:02:09.909Z,-6.58
2023-02-06T17:04:36.689Z,-6.75
2023-02-06T17:07:03.475Z,-6.77
2023-02-06T17:09:30.427Z,-6.73
2023-02-06T17:11:58.267Z,-6.91
2023-02-06T17:14:25.044Z,-6.83
2023-02-06T17:16:51.899Z,-6.91
2023-02-06T17:19:18.733Z,-6.92
2023-02-06T17:21:45.689Z,-6.87
2023-02-06T17:24:12.591Z,-6.89
2023-02-06T17:26:39.537Z,-6.80
2023-02-06T17:29:06.374Z,-6.71
2023-02-06T17:31:33.276Z,-6.61
2023-02-06T17:34:00.128Z,-6.62
2023-02-06T17:36:30.116Z,-6.67
2023-02-06T17:38:59.013Z,-6.58
2023-02-06T17:41:26.728Z,-6.90
2023-02-06T17:43:53.644Z,-6.94
2023-02-06T17:46:20.759Z,-6.90
2023-02-06T17:48:47.715Z,-6.97
2023-02-06T17:51:15.355Z,-6.91
2023-02-06T17:53:42.239Z,-6.83
2023-02-06T17:56:12.871Z,-6.85
2023-02-06T17:58:40.818Z,-6.80
2023-02-06T18:01:11.944Z,-6.74
2023-02-06T18:03:39.111Z,-6.73
2023-02-06T18:06:06.168Z,-6.70
2023-02-06T18:08:33.085Z,-6.55
2023-02-06T18:11:00.272Z,-6.38
2023-02-06T18:13:28.440Z,-6.43
2023-02-06T18:15:56.268Z,-6.35
2023-02-06T18:18:24.198Z,-6.30
2023-02-06T18:20:51.262Z,-6.35
2023-02-06T18:23:19.647Z,-6.39
2023-02-06T18:25:46.493Z,-6.26
2023-02-06T18:28:14.985Z,-6.32
2023-02-06T18:30:42.065Z,-6.47
2023-02-06T18:33:11.419Z,-6.69
2023-02-06T18:35:42.110Z,-6.52
2023-02-06T18:38:10.085Z,-6.43
2023-02-06T18:40:37.808Z,-6.37
2023-02-06T18:43:05.583Z,-6.45
2023-02-06T18:45:34.622Z,-6.50
2023-02-06T18:48:02.036Z,-6.46
2023-02-06T18:50:30.333Z,-6.42
2023-02-06T18:52:57.720Z,-6.44
2023-02-06T18:55:25.014Z,-6.47
2023-02-06T18:57:51.881Z,-6.49
2023-02-06T19:00:20.172Z,-6.41
2023-02-06T19:02:47.326Z,-6.45
2023-02-06T19:05:14.482Z,-6.42
2023-02-06T19:07:41.861Z,-6.46
2023-02-06T19:10:16.204Z,-6.53
2023-02-06T19:12:43.459Z,-6.40
2023-02-06T19:15:11.163Z,-6.29
2023-02-06T19:17:38.116Z,-6.57
2023-02-06T19:20:05.649Z,-6.43
2023-02-06T19:22:44.815Z,-6.40
2023-02-06T19:25:14.250Z,-6.33
2023-02-06T19:27:41.506Z,-6.40
2023-02-06T19:30:08.754Z,-6.27
2023-02-06T19:32:36.001Z,-6.29
2023-02-06T19:35:03.712Z,-6.32
2023-02-06T19:37:30.638Z,-6.26
2023-02-06T19:39:57.530Z,-6.21
2023-02-06T19:42:24.536Z,-6.12
2023-02-06T19:44:53.943Z,-6.37
2023-02-06T19:47:20.878Z,-6.18
2023-02-06T19:49:49.536Z,-6.06
2023-02-06T19:52:16.348Z,-5.97
2023-02-06T19:54:43.276Z,-5.96
2023-02-06T19:57:10.114Z,-5.95
2023-02-06T19:59:36.909Z,-5.97
2023-02-06T20:02:03.804Z,-5.91
2023-02-06T20:04:32.480Z,-5.88
2023-02-06T20:06:59.309Z,-5.80
2023-02-06T20:09:28.394Z,-5.77
2023-02-06T20:11:55.661Z,-5.66
2023-02-06T20:14:23.205Z,-5.69
2023-02-06T20:16:50.370Z,-5.69
2023-02-06T20:19:25.594Z,-5.65
2023-02-06T20:21:54.153Z,-5.70
2023-02-06T20:24:22.218Z,-5.68
2023-02-06T20:26:50.483Z,-5.66
2023-02-06T20:29:22.089Z,-5.57
2023-02-06T20:31:49.767Z,-5.51
2023-02-06T20:34:16.872Z,-5.55
2023-02-06T20:36:44.661Z,-5.46
2023-02-06T20:39:12.688Z,-5.43
2023-02-06T20:41:40.125Z,-5.41
2023-02-06T20:44:07.207Z,-5.34
2023-02-06T20:46:35.224Z,-5.31
2023-02-06T20:49:04.897Z,-5.45
2023-02-06T20:51:32.126Z,-5.40
2023-02-06T20:54:02.005Z,-5.42
2023-02-06T20:56:29.355Z,-5.44
2023-02-06T20:58:58.016Z,-5.46
2023-02-06T21:01:26.111Z,-5.63
2023-02-06T21:03:55.158Z,-5.62
2023-02-06T21:06:22.035Z,-5.50
2023-02-06T21:08:50.384Z,-5.43
2023-02-06T21:11:17.703Z,-5.39
2023-02-06T21:13:44.563Z,-5.38
2023-02-06T21:16:13.522Z,-5.35
2023-02-06T21:18:42.748Z,-5.34
2023-02-06T21:21:11.054Z,-5.54
2023-02-06T21:23:38.476Z,-5.57
2023-02-06T21:26:07.488Z,-5.62
2023-02-06T21:28:35.633Z,-5.62
2023-02-06T21:31:04.406Z,-5.70
2023-02-06T21:33:31.618Z,-5.60
2023-02-06T21:35:58.562Z,-5.73
2023-02-06T21:38:27.373Z,-5.61
2023-02-06T21:40:54.159Z,-5.66
2023-02-06T21:43:21.245Z,-5.62
2023-02-06T21:45:48.308Z,-5.91
2023-02-06T21:48:15.502Z,-5.89
2023-02-06T21:50:42.305Z,-5.79
2023-02-06T21:53:09.806Z,-5.77
2023-02-06T21:55:41.148Z,-5.95
2023-02-06T21:58:08.169Z,-5.87
2023-02-06T22:00:38.486Z,-5.83
2023-02-06T22:03:05.441Z,-5.67
2023-02-06T22:05:32.374Z,-5.70
2023-02-06T22:07:59.267Z,-5.63
2023-02-06T22:10:26.694Z,-5.62
2023-02-06T22:12:53.888Z,-5.81
2023-02-06T22:15:20.805Z,-5.77
2023-02-06T22:17:47.618Z,-5.64
2023-02-06T22:20:16.358Z,-5.66
2023-02-06T22:25:48.339Z,-5.55
2023-02-06T22:28:15.234Z,-5.77
2023-02-06T22:30:42.152Z,-5.70
2023-02-06T22:33:09.086Z,-5.78
2023-02-06T22:35:38.983Z,-5.66
2023-02-06T22:38:05.986Z,-5.63
2023-02-06T22:40:32.798Z,-5.58
2023-02-06T22:42:59.618Z,-5.58
2023-02-06T22:45:26.460Z,-5.53
2023-02-06T22:47:53.306Z,-5.63
2023-02-06T22:50:20.221Z,-5.66
2023-02-06T22:53:05.502Z,-5.60
2023-02-06T22:55:52.308Z,-5.62
2023-02-06T22:58:19.193Z,-5.78
2023-02-06T23:00:46.043Z,-5.78
2023-02-06T23:03:12.788Z,-5.63
2023-02-06T23:05:39.812Z,-5.71
2023-02-06T23:08:06.846Z,-5.72
2023-02-06T23:10:33.686Z,-5.64
2023-02-06T23:13:00.518Z,-5.60
2023-02-06T23:15:27.420Z,-5.63
2023-02-06T23:17:54.175Z,-6.38
2023-02-06T23:20:21.097Z,-6.20
2023-02-06T23:22:47.877Z,-6.09
2023-02-06T23:25:14.745Z,-6.03
2023-02-06T23:27:41.504Z,-6.01
2023-02-06T23:30:08.682Z,-6.25
2023-02-06T23:32:35.501Z,-6.19
2023-02-06T23:35:02.522Z,-6.03
2023-02-06T23:37:29.431Z,-5.98
2023-02-06T23:39:56.277Z,-5.92
2023-02-06T23:42:23.409Z,-5.93
2023-02-06T23:44:52.670Z,-5.94
2023-02-06T23:47:19.514Z,-5.87
2023-02-06T23:49:46.252Z,-5.87
2023-02-06T23:52:13.231Z,-5.82
2023-02-06T23:54:39.942Z,-5.73
2023-02-06T23:57:06.843Z,-5.61
2023-02-06T23:59:33.583Z,-5.65
